Portada
METAR-TAF:

METAR-TAF

Aeropuertos :

Aeropuerto Internacional de Qingdao-Liuting

Qingdao, China

latitud: 36-04N, longitud: 120-20E, altitud: 77 m

Observación

El informe se hizo hace 1 hora y 2 minutos, a las 07:00 UTC
Viento 4 kt del suroeste, variando entre sur y oeste
Temperatura 4°C
Humedad 48%
Presión 1035 hPa
Visibilidad 10 km o más
sin nubes por debajo de 1500 m y sin presencia de cumulonimbus.

METAR: ZSQD 060700Z 22002MPS 190V260 CAVOK 04/M06 Q1035 NOSIG

Hora: 16:02 (08:02 UTC)

Pronóstico

El informe se hizo hace 4 horas y 56 minutos, a las 03:06 UTC
Pronóstico válido del 06 a las 06 UTC al 07 a las 06 UTC
Viento 8 kt del sur
Visibilidad 10 km o más
sin nubes por debajo de 1500 m y sin presencia de cumulonimbus.

TAF: ZSQD 060306Z 0606/0706 18004MPS CAVOK TX06/0705Z TNM06/21Z

Observaciones y pronósticos meteorológicos de más de 4000 aeropuertos (mensajes METAR y TAF).

Los puntos amarillos y rojos representan las estaciones disponibles.

Ponga el ratón en el punto deseado para ver el nombre de la estación.

Haga clic para ver las observaciones y los pronósticos meteorológicos.

Para cambiar el mapa : haga clic en los botones verdes con una cruz de color negro para hacer un zoom, en el botón verde con un guión para alejar o en las flechas verdes para mapas adyacentes.


METAR-TAF: